Time;durP1;ratioP1;P1;durP2;ratioP2;P2;SDS_P1;SDS_P2;PMS_P1;PMS_P2;Temp;Humidity;BMP_temperature;BMP_pressure;BME280_temperature;BME280_humidity;BME280_pressure;Samples;Min_cycle;Max_cycle;Signal;HPM_P1;HPM_P2
2022/01/22 00:01:11;;;;;;;16.25;3.42;;;6.50;99.90;;;;;;5127561;27;20431;-78
2022/01/22 00:03:38;;;;;;;12.27;3.63;;;6.50;99.90;;;;;;5122193;27;20043;-77
2022/01/22 00:06:04;;;;;;;14.00;3.85;;;6.50;99.90;;;;;;5119434;27;20173;-77
2022/01/22 00:08:31;;;;;;;18.20;3.63;;;6.50;99.90;;;;;;5119295;27;20051;-77
2022/01/22 00:10:57;;;;;;;25.42;3.70;;;6.50;99.90;;;;;;5128377;27;20046;-77
2022/01/22 00:16:08;;;;;;;25.73;3.67;;;6.50;99.90;;;;;;5123010;27;20065;-77
2022/01/22 00:18:34;;;;;;;11.15;2.78;;;6.50;99.90;;;;;;5122783;27;20447;-78
2022/01/22 00:21:01;;;;;;;16.70;3.20;;;6.40;99.90;;;;;;5119268;27;21766;-78
2022/01/22 00:23:28;;;;;;;25.83;3.92;;;6.50;99.90;;;;;;5124185;27;20135;-77
2022/01/22 00:25:55;;;;;;;23.50;3.35;;;6.60;99.90;;;;;;5126139;27;20060;-78
2022/01/22 00:28:21;;;;;;;24.17;3.55;;;6.60;99.90;;;;;;5126414;27;20043;-76
2022/01/22 00:30:48;;;;;;;6.60;2.90;;;6.50;99.90;;;;;;5139976;27;20054;-78
2022/01/22 00:33:15;;;;;;;14.38;2.17;;;6.50;99.90;;;;;;5115989;27;20062;-78
2022/01/22 00:35:42;;;;;;;7.30;2.63;;;6.60;99.90;;;;;;5118690;27;20062;-78
2022/01/22 00:38:09;;;;;;;8.55;2.08;;;6.40;99.90;;;;;;5128978;27;20046;-78
2022/01/22 00:40:35;;;;;;;17.38;2.60;;;6.40;99.90;;;;;;5121142;27;20055;-78
2022/01/22 00:43:02;;;;;;;20.17;2.40;;;6.50;99.90;;;;;;5147722;27;20043;-78
2022/01/22 00:45:28;;;;;;;11.73;3.10;;;6.40;99.90;;;;;;5133177;27;20058;-78
2022/01/22 00:47:55;;;;;;;10.88;3.00;;;6.30;99.90;;;;;;5128299;27;20086;-77
2022/01/22 00:50:21;;;;;;;12.93;2.60;;;6.40;99.90;;;;;;5138676;27;20051;-77
2022/01/22 00:52:48;;;;;;;8.88;2.35;;;6.40;99.90;;;;;;5126393;27;20055;-78
2022/01/22 00:55:14;;;;;;;14.32;2.30;;;6.40;99.90;;;;;;5125992;27;20446;-78
2022/01/22 00:57:41;;;;;;;11.32;3.10;;;6.40;99.90;;;;;;5138974;27;20418;-77
2022/01/22 01:00:07;;;;;;;11.65;2.67;;;6.30;99.90;;;;;;5146544;27;20497;-76
2022/01/22 01:02:35;;;;;;;14.27;2.85;;;6.30;99.90;;;;;;5118387;27;20043;-78
2022/01/22 01:05:02;;;;;;;10.45;2.65;;;6.30;99.90;;;;;;5121425;27;20053;-78
2022/01/22 01:07:30;;;;;;;6.80;2.60;;;6.40;99.90;;;;;;5136900;27;20053;-78
2022/01/22 01:09:56;;;;;;;6.20;2.08;;;6.40;99.90;;;;;;5133396;27;20046;-78
2022/01/22 01:12:23;;;;;;;8.60;2.35;;;6.30;99.90;;;;;;5127895;27;20046;-78
2022/01/22 01:15:05;;;;;;;5.60;1.95;;;6.40;99.90;;;;;;5124776;27;20131;-78
2022/01/22 01:17:57;;;;;;;7.95;2.38;;;6.30;99.90;;;;;;5135824;27;20515;-78
2022/01/22 01:34:10;;;;;;;2.83;1.02;;;6.40;99.90;;;;;;5133037;27;20043;-78
2022/01/22 01:36:36;;;;;;;10.60;2.17;;;6.50;99.90;;;;;;5148429;27;20052;-78
2022/01/22 01:39:05;;;;;;;13.23;2.22;;;6.50;99.90;;;;;;5116584;27;20062;-77
2022/01/22 01:41:39;;;;;;;16.73;2.45;;;6.50;99.90;;;;;;5151780;27;20050;-78
2022/01/22 01:44:05;;;;;;;5.75;1.45;;;6.60;99.90;;;;;;5150550;27;20046;-78
2022/01/22 01:46:33;;;;;;;6.22;1.60;;;6.60;99.90;;;;;;5145456;27;20069;-79
2022/01/22 01:49:00;;;;;;;5.85;2.00;;;6.70;99.90;;;;;;5120173;27;20043;-79
2022/01/22 01:51:29;;;;;;;10.25;1.63;;;6.70;99.90;;;;;;5121934;27;20466;-79
2022/01/22 01:54:02;;;;;;;4.28;1.80;;;6.50;99.90;;;;;;5119490;27;20057;-79
2022/01/22 01:59:12;;;;;;;11.02;2.50;;;6.40;99.90;;;;;;5127825;28;20047;-78
2022/01/22 02:01:39;;;;;;;10.85;1.98;;;6.40;99.90;;;;;;5114253;27;20051;-79
2022/01/22 02:04:08;;;;;;;9.63;2.88;;;6.40;99.90;;;;;;5130774;27;20038;-79
2022/01/22 02:06:35;;;;;;;10.45;1.88;;;6.40;99.90;;;;;;5133064;27;20053;-79
2022/01/22 02:09:02;;;;;;;10.73;2.88;;;6.40;99.90;;;;;;5126127;27;20072;-79
2022/01/22 02:11:29;;;;;;;9.77;2.65;;;6.30;99.90;;;;;;5116686;28;20454;-79
2022/01/22 02:14:06;;;;;;;16.67;3.80;;;6.40;99.90;;;;;;5131176;27;20107;-79
2022/01/22 02:24:45;;;;;;;18.85;3.85;;;6.40;99.90;;;;;;5122866;27;20046;-77
2022/01/22 02:27:11;;;;;;;11.77;2.75;;;6.30;99.90;;;;;;5117930;27;20047;-78
2022/01/22 02:29:38;;;;;;;15.68;3.35;;;6.30;99.90;;;;;;5117193;27;21011;-78
2022/01/22 02:32:27;;;;;;;10.32;2.58;;;6.30;99.90;;;;;;5119802;27;20509;-79
2022/01/22 02:34:55;;;;;;;17.00;2.75;;;6.30;99.90;;;;;;5117458;27;20115;-79
2022/01/22 02:37:22;;;;;;;8.10;2.97;;;6.30;99.90;;;;;;5122725;27;20402;-79
2022/01/22 02:40:00;;;;;;;10.65;1.90;;;6.40;99.90;;;;;;5125840;27;20046;-78
2022/01/22 02:42:30;;;;;;;8.05;2.20;;;6.30;99.90;;;;;;5124625;27;20046;-79
2022/01/22 02:44:56;;;;;;;5.13;1.63;;;6.30;99.90;;;;;;5125827;27;20046;-78
2022/01/22 02:47:23;;;;;;;7.18;2.42;;;6.40;99.90;;;;;;5128270;27;20436;-78
2022/01/22 02:49:50;;;;;;;6.20;2.15;;;6.50;99.90;;;;;;5144100;27;20133;-78
2022/01/22 02:52:17;;;;;;;7.30;1.42;;;6.60;99.90;;;;;;5142646;27;20397;-77
2022/01/22 02:54:44;;;;;;;6.28;2.40;;;6.70;99.90;;;;;;5130585;27;20058;-77
2022/01/22 02:57:12;;;;;;;5.70;2.22;;;6.70;99.90;;;;;;5123003;27;20047;-78
2022/01/22 02:59:39;;;;;;;7.53;2.28;;;6.50;99.90;;;;;;5127236;27;20375;-78
2022/01/22 03:02:06;;;;;;;15.60;2.35;;;6.40;99.90;;;;;;5126820;27;20047;-77
2022/01/22 03:04:32;;;;;;;6.97;2.28;;;6.30;99.90;;;;;;5147620;27;20050;-78
2022/01/22 03:06:59;;;;;;;12.00;2.83;;;6.30;99.90;;;;;;5133111;27;20039;-77
2022/01/22 03:09:29;;;;;;;14.60;2.58;;;6.30;99.90;;;;;;5124254;27;20434;-77
2022/01/22 03:12:15;;;;;;;7.95;2.17;;;6.30;99.90;;;;;;5136633;27;20057;-78
2022/01/22 03:17:36;;;;;;;7.55;2.40;;;6.30;99.90;;;;;;5123243;27;20054;-78
2022/01/22 03:20:17;;;;;;;11.80;2.65;;;6.30;99.90;;;;;;5126853;27;20050;-78
2022/01/22 03:23:05;;;;;;;10.50;2.08;;;6.50;99.90;;;;;;5126372;27;20051;-76
2022/01/22 03:28:19;;;;;;;7.93;1.67;;;6.50;99.90;;;;;;5123446;27;20387;-77
2022/01/22 03:30:46;;;;;;;5.85;1.92;;;6.50;99.90;;;;;;5132412;27;20047;-77
2022/01/22 03:33:14;;;;;;;8.48;2.05;;;6.50;99.90;;;;;;5146815;27;20050;-77
2022/01/22 03:35:45;;;;;;;4.88;0.90;;;6.50;99.90;;;;;;5125258;27;20054;-77
2022/01/22 03:38:11;;;;;;;17.08;2.20;;;6.60;99.90;;;;;;5116915;27;20062;-76
2022/01/22 03:40:38;;;;;;;13.20;2.33;;;6.40;99.90;;;;;;5114868;27;20413;-77
2022/01/22 03:43:04;;;;;;;6.80;2.03;;;6.30;99.90;;;;;;5122871;27;20401;-77
2022/01/22 03:45:31;;;;;;;5.65;1.75;;;6.30;99.90;;;;;;5127908;27;20043;-79
2022/01/22 03:47:57;;;;;;;4.70;1.65;;;6.30;99.90;;;;;;5115369;27;20054;-78
2022/01/22 03:50:24;;;;;;;7.18;1.83;;;6.20;99.90;;;;;;5115928;27;20051;-78
2022/01/22 03:52:50;;;;;;;5.30;2.17;;;6.30;99.90;;;;;;5124397;27;20051;-79
2022/01/22 03:55:28;;;;;;;8.18;1.80;;;6.30;99.90;;;;;;5135994;27;20054;-78
2022/01/22 03:57:55;;;;;;;4.20;1.45;;;6.30;99.90;;;;;;5125131;27;20122;-78
2022/01/22 04:00:22;;;;;;;8.25;2.08;;;6.20;99.90;;;;;;5131048;27;20062;-77
2022/01/22 04:03:23;;;;;;;8.95;2.70;;;6.20;99.90;;;;;;5135821;27;20125;-77
2022/01/22 04:06:03;;;;;;;8.90;3.00;;;6.10;99.90;;;;;;5122955;27;20130;-78
2022/01/22 04:08:29;;;;;;;6.93;2.25;;;6.10;99.90;;;;;;5154694;27;20043;-77
2022/01/22 04:10:55;;;;;;;4.80;2.15;;;6.20;99.90;;;;;;5141413;27;20107;-78
2022/01/22 04:13:29;;;;;;;10.68;2.30;;;6.10;99.90;;;;;;5132502;27;20051;-76
2022/01/22 04:15:56;;;;;;;6.40;2.50;;;6.20;99.90;;;;;;5118459;27;20054;-78
2022/01/22 04:26:42;;;;;;;10.32;2.22;;;6.10;99.90;;;;;;5127538;27;20038;-78
2022/01/22 04:29:08;;;;;;;5.38;2.13;;;6.10;99.90;;;;;;5136347;27;20126;-78
2022/01/22 04:31:35;;;;;;;5.07;2.13;;;6.10;99.90;;;;;;5133705;27;20046;-78
2022/01/22 04:34:01;;;;;;;5.50;2.47;;;6.10;99.90;;;;;;5121804;27;20433;-77
2022/01/22 04:36:28;;;;;;;5.72;2.13;;;6.00;99.90;;;;;;5124729;27;20470;-77
2022/01/22 04:38:54;;;;;;;12.73;2.35;;;6.00;99.90;;;;;;5117511;27;20062;-78
2022/01/22 04:41:21;;;;;;;8.52;2.30;;;6.10;99.90;;;;;;5114911;27;20046;-76
2022/01/22 04:43:49;;;;;;;7.28;1.80;;;6.10;99.90;;;;;;5127185;27;20086;-77
2022/01/22 04:46:21;;;;;;;8.13;2.03;;;6.10;99.90;;;;;;5117293;27;20043;-77
2022/01/22 04:49:04;;;;;;;11.90;2.47;;;6.30;99.90;;;;;;5125578;27;20097;-77
2022/01/22 04:57:00;;;;;;;11.02;2.92;;;6.30;99.90;;;;;;5125122;27;20486;-77
2022/01/22 04:59:26;;;;;;;6.72;2.70;;;6.30;99.90;;;;;;5130656;27;20078;-76
2022/01/22 05:01:53;;;;;;;9.10;2.00;;;6.40;99.90;;;;;;5114219;27;20083;-76
2022/01/22 05:04:19;;;;;;;6.43;2.03;;;6.30;99.90;;;;;;5116180;27;20058;-75
2022/01/22 05:06:46;;;;;;;7.63;1.77;;;6.20;99.90;;;;;;5124648;27;20050;-75
2022/01/22 05:09:12;;;;;;;4.57;1.85;;;6.30;99.90;;;;;;5113104;27;20059;-77
2022/01/22 05:11:39;;;;;;;5.28;1.45;;;6.40;99.90;;;;;;5118978;27;20047;-78
2022/01/22 05:14:05;;;;;;;6.28;1.40;;;6.40;99.90;;;;;;5118944;27;20063;-77
2022/01/22 05:16:32;;;;;;;7.22;1.77;;;6.40;99.90;;;;;;5124898;27;20039;-77
2022/01/22 05:19:02;;;;;;;4.55;1.67;;;6.40;99.90;;;;;;5129086;27;20043;-77
2022/01/22 05:21:32;;;;;;;4.30;1.73;;;6.30;99.90;;;;;;5123121;27;20467;-77
2022/01/22 05:24:03;;;;;;;4.85;1.67;;;6.20;99.90;;;;;;5110466;28;20188;-77
2022/01/22 05:37:31;;;;;;;6.07;2.22;;;6.30;99.90;;;;;;5119450;28;20071;-77
2022/01/22 05:39:58;;;;;;;3.38;1.63;;;6.30;99.90;;;;;;5115987;28;20065;-76
2022/01/22 05:42:24;;;;;;;21.38;2.28;;;6.30;99.90;;;;;;5118456;28;20051;-76
2022/01/22 05:44:51;;;;;;;12.20;1.65;;;6.30;99.90;;;;;;5129009;28;20077;-76
2022/01/22 05:47:21;;;;;;;14.23;1.63;;;6.30;99.90;;;;;;5140511;27;20061;-76
2022/01/22 05:49:48;;;;;;;19.42;2.17;;;6.30;99.90;;;;;;5122769;28;20051;-75
2022/01/22 05:52:20;;;;;;;13.88;2.47;;;6.40;99.90;;;;;;5133087;27;20066;-77
2022/01/22 05:55:11;;;;;;;12.45;2.17;;;6.40;99.90;;;;;;5136176;27;20051;-77
2022/01/22 06:00:22;;;;;;;4.95;1.52;;;6.30;99.90;;;;;;5150078;27;20047;-77
2022/01/22 06:02:48;;;;;;;6.88;1.80;;;6.20;99.90;;;;;;5129551;27;20397;-77
2022/01/22 06:05:15;;;;;;;5.63;2.45;;;6.20;99.90;;;;;;5134720;27;20474;-76
2022/01/22 06:07:41;;;;;;;7.13;1.52;;;6.10;99.90;;;;;;5118530;27;20152;-77
2022/01/22 06:10:16;;;;;;;8.18;2.42;;;6.00;99.90;;;;;;5129073;27;20054;-77
2022/01/22 06:12:47;;;;;;;11.75;2.00;;;6.00;99.90;;;;;;5147360;27;20050;-77
2022/01/22 06:15:13;;;;;;;7.78;2.28;;;6.00;99.90;;;;;;5153342;27;20486;-77
2022/01/22 06:17:40;;;;;;;6.63;1.60;;;6.10;99.90;;;;;;5128483;27;20050;-76
2022/01/22 06:20:06;;;;;;;5.35;2.00;;;6.20;99.90;;;;;;5134421;27;20482;-77
2022/01/22 06:22:33;;;;;;;13.00;2.03;;;6.10;99.90;;;;;;5123940;27;20062;-77
2022/01/22 06:24:59;;;;;;;5.53;1.98;;;6.10;99.90;;;;;;5152050;27;20126;-77
2022/01/22 06:27:26;;;;;;;18.88;2.60;;;6.20;99.90;;;;;;5129885;27;20055;-77
2022/01/22 06:29:52;;;;;;;15.18;2.42;;;6.10;99.90;;;;;;5117834;27;20047;-77
2022/01/22 06:32:19;;;;;;;13.82;2.25;;;6.10;99.90;;;;;;5151739;27;20062;-77
2022/01/22 06:34:46;;;;;;;8.88;2.75;;;6.20;99.90;;;;;;5128396;27;20162;-77
2022/01/22 06:37:12;;;;;;;16.80;2.85;;;6.20;99.90;;;;;;5142897;27;20051;-77
2022/01/22 06:41:44;;;;;;;6.38;2.53;;;6.30;99.90;;;;;;5125599;27;20054;-77
2022/01/22 06:42:29;;;;;;;11.50;1.95;;;6.30;99.90;;;;;;5118197;27;20062;-78
2022/01/22 06:44:56;;;;;;;14.88;2.05;;;6.30;99.90;;;;;;5151451;27;20058;-77
2022/01/22 06:47:22;;;;;;;27.58;2.53;;;6.30;99.90;;;;;;5133058;27;20047;-77
2022/01/22 06:49:49;;;;;;;7.68;1.95;;;6.30;99.90;;;;;;5133929;27;20053;-76
2022/01/22 06:52:15;;;;;;;12.63;2.20;;;6.30;99.90;;;;;;5133528;27;20039;-77
2022/01/22 06:54:42;;;;;;;11.30;3.17;;;6.30;99.90;;;;;;5133983;27;20047;-78
2022/01/22 06:57:09;;;;;;;6.80;2.17;;;6.30;99.90;;;;;;5152887;27;20054;-77
2022/01/22 06:59:35;;;;;;;10.30;2.38;;;6.30;99.90;;;;;;5152636;27;20144;-77
2022/01/22 07:02:02;;;;;;;11.68;2.47;;;6.20;99.90;;;;;;5134411;27;20047;-78
2022/01/22 07:04:29;;;;;;;9.63;2.78;;;6.20;99.90;;;;;;5135489;27;20051;-78
2022/01/22 07:06:56;;;;;;;16.88;3.13;;;6.30;99.90;;;;;;5133706;27;20134;-77
2022/01/22 07:09:23;;;;;;;8.20;2.15;;;6.20;99.90;;;;;;5153892;27;20042;-76
2022/01/22 07:11:50;;;;;;;18.15;2.97;;;6.20;99.90;;;;;;5132866;27;20510;-78
2022/01/22 07:14:16;;;;;;;5.88;1.90;;;6.30;99.90;;;;;;5133834;27;20055;-77
2022/01/22 07:16:43;;;;;;;6.82;2.75;;;6.30;99.90;;;;;;5134484;27;20058;-77
2022/01/22 07:19:09;;;;;;;19.33;4.00;;;6.30;99.90;;;;;;5134352;27;20051;-77
2022/01/22 07:21:37;;;;;;;12.43;3.47;;;6.30;99.90;;;;;;5152087;27;20062;-77
2022/01/22 07:26:48;;;;;;;10.95;2.00;;;6.40;99.90;;;;;;5131952;27;20508;-78
2022/01/22 07:29:15;;;;;;;7.15;2.05;;;6.30;99.90;;;;;;5134870;27;20050;-77
2022/01/22 07:31:41;;;;;;;3.47;1.65;;;6.30;99.90;;;;;;5134469;27;20042;-78
2022/01/22 07:34:08;;;;;;;3.03;1.50;;;6.30;99.90;;;;;;5132176;27;20055;-78
2022/01/22 07:36:34;;;;;;;4.53;1.27;;;6.40;99.90;;;;;;5154754;27;20055;-78
2022/01/22 07:39:01;;;;;;;1.75;0.88;;;6.40;99.90;;;;;;5150962;27;20046;-78
2022/01/22 07:41:27;;;;;;;5.25;1.42;;;6.30;99.90;;;;;;5152124;27;20055;-77
2022/01/22 07:43:54;;;;;;;5.88;2.17;;;6.30;99.90;;;;;;5130238;27;20042;-78
2022/01/22 07:46:21;;;;;;;9.35;1.38;;;6.40;99.90;;;;;;5133469;27;20510;-77
2022/01/22 07:48:48;;;;;;;6.63;1.73;;;6.30;99.90;;;;;;5150634;27;20099;-77
2022/01/22 07:51:15;;;;;;;3.10;1.50;;;6.10;99.90;;;;;;5132928;27;20051;-78
2022/01/22 07:53:41;;;;;;;6.20;1.40;;;6.30;99.90;;;;;;5133372;27;20066;-78
2022/01/22 07:56:08;;;;;;;11.82;2.25;;;6.20;99.90;;;;;;5131283;27;20150;-77
2022/01/22 07:58:34;;;;;;;9.05;2.17;;;6.10;99.90;;;;;;5153300;27;20045;-78
2022/01/22 08:01:01;;;;;;;11.05;2.35;;;6.10;99.90;;;;;;5133263;27;20049;-78
2022/01/22 08:03:28;;;;;;;5.90;2.00;;;6.00;99.90;;;;;;5132328;27;20054;-78
2022/01/22 08:05:55;;;;;;;3.75;1.73;;;6.00;99.90;;;;;;5131344;27;20085;-78
2022/01/22 08:08:21;;;;;;;6.03;2.30;;;6.00;99.90;;;;;;5152166;27;20054;-78
2022/01/22 08:10:48;;;;;;;12.68;2.03;;;6.00;99.90;;;;;;5133122;27;20061;-77
2022/01/22 08:13:17;;;;;;;4.82;1.73;;;5.90;99.90;;;;;;5151153;27;20081;-78
2022/01/22 08:15:44;;;;;;;11.68;1.65;;;5.90;99.90;;;;;;5152372;27;20042;-77
2022/01/22 08:18:10;;;;;;;6.88;2.45;;;5.90;99.90;;;;;;5149119;27;20039;-78
2022/01/22 08:20:37;;;;;;;12.07;2.35;;;5.90;99.90;;;;;;5152683;27;20062;-78
2022/01/22 08:23:03;;;;;;;6.78;2.03;;;5.90;99.90;;;;;;5130959;27;20201;-78
2022/01/22 08:25:32;;;;;;;9.07;2.47;;;6.00;99.90;;;;;;5152247;27;20047;-78
2022/01/22 08:30:45;;;;;;;9.30;1.40;;;6.10;99.90;;;;;;5131970;27;20481;-78
2022/01/22 08:33:33;;;;;;;8.65;2.40;;;6.10;99.90;;;;;;5133136;27;20303;-78
2022/01/22 08:36:02;;;;;;;6.97;1.63;;;6.30;99.90;;;;;;5131655;27;20119;-78
2022/01/22 08:38:29;;;;;;;6.50;1.42;;;6.30;99.90;;;;;;5133112;27;20059;-77
2022/01/22 08:40:55;;;;;;;5.72;1.75;;;6.20;99.90;;;;;;5151829;27;20046;-78
2022/01/22 08:43:22;;;;;;;4.25;1.60;;;6.20;99.90;;;;;;5149856;27;20054;-77
2022/01/22 08:45:50;;;;;;;4.32;2.17;;;6.20;99.90;;;;;;5152237;27;20490;-77
2022/01/22 08:48:16;;;;;;;3.90;2.00;;;6.20;99.90;;;;;;5130235;27;20065;-77
2022/01/22 08:50:43;;;;;;;3.35;1.38;;;6.30;99.90;;;;;;5130726;27;20058;-78
2022/01/22 08:53:09;;;;;;;6.85;1.73;;;6.30;99.90;;;;;;5149768;27;20059;-78
2022/01/22 08:55:36;;;;;;;2.53;1.25;;;6.30;99.90;;;;;;5129927;27;20043;-78
2022/01/22 08:58:02;;;;;;;2.15;1.27;;;6.30;99.90;;;;;;5150193;27;20050;-78
2022/01/22 09:00:29;;;;;;;6.15;1.73;;;6.10;99.90;;;;;;5133554;27;20478;-77
2022/01/22 09:02:56;;;;;;;4.32;1.45;;;6.10;99.90;;;;;;5131757;27;20469;-78
2022/01/22 09:05:30;;;;;;;1.70;1.40;;;6.10;99.90;;;;;;5147587;27;20045;-78
2022/01/22 09:07:57;;;;;;;2.75;1.15;;;6.20;99.90;;;;;;5132724;27;20126;-78
2022/01/22 09:10:23;;;;;;;8.75;1.67;;;6.20;99.90;;;;;;5151597;27;20382;-77
2022/01/22 09:12:50;;;;;;;2.13;0.80;;;6.10;99.90;;;;;;5133314;27;20531;-78
2022/01/22 09:15:16;;;;;;;7.70;1.60;;;6.10;99.90;;;;;;5151093;27;20059;-77
2022/01/22 09:17:47;;;;;;;7.22;1.17;;;6.00;99.90;;;;;;5149627;27;20038;-78
2022/01/22 09:20:29;;;;;;;20.15;1.65;;;6.10;99.90;;;;;;5130618;27;20042;-78
2022/01/22 09:22:56;;;;;;;9.32;1.80;;;6.10;99.90;;;;;;5149956;27;20047;-78
2022/01/22 09:25:22;;;;;;;21.65;2.38;;;6.00;99.90;;;;;;5130950;27;20521;-78
2022/01/22 09:27:49;;;;;;;4.18;1.48;;;6.10;99.90;;;;;;5132194;27;20161;-77
2022/01/22 09:30:15;;;;;;;7.38;1.27;;;6.10;99.90;;;;;;5130919;27;20062;-77
2022/01/22 09:32:42;;;;;;;13.95;2.63;;;6.20;99.90;;;;;;5129653;27;20058;-78
2022/01/22 09:35:08;;;;;;;7.90;1.90;;;6.10;99.90;;;;;;5131547;27;20047;-77
2022/01/22 09:37:35;;;;;;;17.15;2.03;;;6.10;99.90;;;;;;5131422;27;20047;-78
2022/01/22 09:40:02;;;;;;;9.73;2.00;;;6.10;99.90;;;;;;5132071;27;20053;-78
2022/01/22 09:42:28;;;;;;;8.05;1.25;;;6.20;99.90;;;;;;5150348;27;20054;-78
2022/01/22 09:44:55;;;;;;;8.80;1.00;;;6.20;99.90;;;;;;5151509;27;20066;-78
2022/01/22 09:47:21;;;;;;;5.45;1.73;;;6.20;99.90;;;;;;5125845;28;20051;-78
2022/01/22 09:49:48;;;;;;;14.15;1.33;;;6.20;99.90;;;;;;5128529;28;20050;-78
2022/01/22 09:52:14;;;;;;;10.75;1.38;;;6.10;99.90;;;;;;5124930;28;20048;-78
2022/01/22 09:54:41;;;;;;;15.05;1.60;;;6.20;99.90;;;;;;5129407;28;20056;-79
2022/01/22 09:57:09;;;;;;;8.93;1.77;;;6.10;99.90;;;;;;5127242;28;20055;-79
2022/01/22 09:59:36;;;;;;;14.55;2.00;;;6.20;99.90;;;;;;5126698;28;20058;-78
2022/01/22 10:02:02;;;;;;;5.10;1.35;;;6.20;99.90;;;;;;5129454;28;20054;-79
2022/01/22 10:04:29;;;;;;;8.82;1.33;;;6.20;99.90;;;;;;5128883;28;20047;-79
2022/01/22 10:06:55;;;;;;;3.83;1.15;;;6.20;99.90;;;;;;5125371;28;20072;-78
2022/01/22 10:09:27;;;;;;;2.03;0.98;;;6.20;99.90;;;;;;5126134;28;20057;-78
2022/01/22 10:11:53;;;;;;;1.50;0.85;;;6.30;99.90;;;;;;5125891;28;20096;-78
2022/01/22 10:14:20;;;;;;;2.30;0.75;;;6.20;99.90;;;;;;5124879;28;20102;-78
2022/01/22 10:16:46;;;;;;;1.75;0.63;;;6.30;99.90;;;;;;5123174;28;20043;-77
2022/01/22 10:19:13;;;;;;;1.23;1.08;;;6.20;99.90;;;;;;5123796;28;20036;-78
2022/01/22 10:21:39;;;;;;;4.55;1.00;;;6.30;99.90;;;;;;5117420;28;20259;-78
2022/01/22 10:24:06;;;;;;;2.72;0.60;;;6.40;99.90;;;;;;5113295;28;21601;-79
2022/01/22 10:26:33;;;;;;;10.32;0.90;;;6.50;99.90;;;;;;5114232;28;20509;-78
2022/01/22 10:29:01;;;;;;;2.33;1.05;;;6.50;99.90;;;;;;5122191;28;20051;-78
2022/01/22 10:31:30;;;;;;;1.45;1.00;;;6.60;99.90;;;;;;5118939;28;20395;-78
2022/01/22 10:33:56;;;;;;;7.35;0.60;;;6.70;99.90;;;;;;5117118;28;20057;-77
2022/01/22 10:36:23;;;;;;;1.20;0.70;;;6.60;99.90;;;;;;5121249;28;20051;-78
2022/01/22 10:38:49;;;;;;;1.33;0.65;;;6.70;99.90;;;;;;5118430;28;20059;-78
2022/01/22 10:41:16;;;;;;;5.50;1.05;;;6.80;99.90;;;;;;5127360;27;20224;-78
2022/01/22 10:43:43;;;;;;;2.35;0.63;;;6.80;99.90;;;;;;5123764;27;20055;-78
2022/01/22 10:46:13;;;;;;;3.30;0.68;;;6.90;99.90;;;;;;5126909;27;20051;-78
2022/01/22 10:48:39;;;;;;;2.45;0.80;;;6.90;99.90;;;;;;5124728;27;20039;-78
2022/01/22 10:51:06;;;;;;;2.63;1.08;;;6.80;99.90;;;;;;5127881;27;20062;-79
2022/01/22 10:53:33;;;;;;;1.85;0.80;;;6.80;99.90;;;;;;5118842;27;20140;-78
2022/01/22 10:55:59;;;;;;;1.02;0.90;;;6.60;99.90;;;;;;5118963;27;20051;-78
2022/01/22 10:58:26;;;;;;;6.07;1.55;;;6.60;99.90;;;;;;5129408;27;20043;-78
2022/01/22 11:00:52;;;;;;;0.73;0.47;;;6.50;99.90;;;;;;5147923;27;20051;-77
2022/01/22 11:03:19;;;;;;;5.05;0.90;;;6.50;99.90;;;;;;5147868;27;20051;-77
2022/01/22 11:05:45;;;;;;;2.88;1.17;;;6.50;99.90;;;;;;5147373;27;20409;-77
2022/01/22 11:08:12;;;;;;;4.25;0.57;;;6.40;99.90;;;;;;5129030;27;20467;-77
2022/01/22 11:10:40;;;;;;;5.82;0.73;;;6.50;99.90;;;;;;5130217;27;20123;-76
2022/01/22 11:13:06;;;;;;;3.38;0.90;;;6.60;99.90;;;;;;5131425;27;20049;-78
2022/01/22 11:15:33;;;;;;;2.50;0.50;;;6.70;99.90;;;;;;5128619;27;20742;-77
2022/01/22 11:17:59;;;;;;;3.80;0.68;;;6.60;99.90;;;;;;5143432;27;20084;-77
2022/01/22 11:20:26;;;;;;;1.02;0.80;;;6.60;99.90;;;;;;5128492;27;20615;-77
2022/01/22 11:22:52;;;;;;;1.58;0.90;;;6.70;99.90;;;;;;5115794;27;20047;-77
2022/01/22 11:25:19;;;;;;;5.82;1.38;;;6.80;99.90;;;;;;5141074;27;20499;-78
2022/01/22 11:27:45;;;;;;;1.10;0.35;;;6.80;99.90;;;;;;5127674;27;20462;-77
2022/01/22 11:30:12;;;;;;;3.28;0.73;;;6.80;99.90;;;;;;5140665;27;20405;-77
2022/01/22 11:32:39;;;;;;;5.38;0.77;;;6.90;99.90;;;;;;5124595;27;20061;-77
2022/01/22 11:35:05;;;;;;;3.72;1.17;;;6.90;99.90;;;;;;5114001;27;20051;-78
2022/01/22 11:37:32;;;;;;;4.68;1.38;;;6.90;99.90;;;;;;5149436;27;20046;-77
2022/01/22 11:39:59;;;;;;;5.40;0.80;;;6.90;99.90;;;;;;5129961;27;20042;-77
2022/01/22 11:42:25;;;;;;;4.82;0.75;;;7.00;99.90;;;;;;5150740;27;20050;-78
2022/01/22 11:45:02;;;;;;;5.80;0.95;;;7.00;99.90;;;;;;5128721;27;20060;-77
2022/01/22 11:47:28;;;;;;;5.75;0.93;;;7.10;99.90;;;;;;5150426;27;20054;-77
2022/01/22 11:49:55;;;;;;;6.05;1.00;;;7.20;99.90;;;;;;5123388;27;20050;-77
2022/01/22 11:52:28;;;;;;;3.45;1.80;;;7.00;99.90;;;;;;5123044;27;20039;-77
2022/01/22 11:54:54;;;;;;;4.43;0.95;;;7.10;99.90;;;;;;5115460;27;20043;-77
2022/01/22 11:57:21;;;;;;;2.45;0.88;;;7.20;99.90;;;;;;5124132;27;20054;-78
2022/01/22 11:59:48;;;;;;;1.42;0.93;;;7.20;99.90;;;;;;5117771;27;20054;-77
2022/01/22 12:02:14;;;;;;;5.53;0.90;;;7.10;99.90;;;;;;5117241;27;20076;-77
2022/01/22 12:04:41;;;;;;;3.13;0.70;;;7.00;99.90;;;;;;5144863;27;20068;-77
2022/01/22 12:07:08;;;;;;;7.75;1.48;;;7.10;99.90;;;;;;5129033;27;20058;-78
2022/01/22 12:09:41;;;;;;;6.78;1.15;;;7.10;99.90;;;;;;5114095;27;20043;-79
2022/01/22 12:14:53;;;;;;;1.95;0.60;;;7.20;99.90;;;;;;5115618;27;20053;-78
2022/01/22 12:17:26;;;;;;;5.68;0.95;;;7.00;99.90;;;;;;5141680;27;20127;-78
2022/01/22 12:20:06;;;;;;;6.25;0.82;;;7.10;99.90;;;;;;5119427;27;20047;-78
2022/01/22 12:22:32;;;;;;;3.20;0.95;;;6.90;99.90;;;;;;5136097;27;20130;-79
2022/01/22 12:24:59;;;;;;;4.65;0.82;;;6.90;99.90;;;;;;5131781;27;20047;-78
2022/01/22 12:27:25;;;;;;;5.05;0.82;;;6.90;99.90;;;;;;5128627;27;20047;-78
2022/01/22 12:29:52;;;;;;;1.75;0.50;;;6.90;99.90;;;;;;5124971;27;20043;-79
2022/01/22 12:32:19;;;;;;;8.10;1.30;;;6.90;99.90;;;;;;5126927;27;20043;-79
2022/01/22 12:34:46;;;;;;;3.88;0.52;;;6.90;99.90;;;;;;5139176;27;20057;-79
2022/01/22 12:37:12;;;;;;;1.58;0.90;;;6.80;99.90;;;;;;5125363;27;20051;-79
2022/01/22 12:39:39;;;;;;;3.55;0.82;;;6.90;99.90;;;;;;5114261;27;20138;-78
2022/01/22 12:42:11;;;;;;;7.18;1.50;;;6.90;99.90;;;;;;5114147;27;20466;-78
2022/01/22 12:44:46;;;;;;;10.63;1.50;;;7.00;99.90;;;;;;5135102;27;20576;-78
2022/01/22 12:47:12;;;;;;;9.25;1.75;;;7.00;99.90;;;;;;5118293;27;20134;-80
2022/01/22 12:49:39;;;;;;;2.63;1.00;;;6.90;99.90;;;;;;5127296;27;20042;-79
2022/01/22 12:52:05;;;;;;;2.95;1.38;;;6.70;99.90;;;;;;5112647;27;20062;-79
2022/01/22 12:54:32;;;;;;;2.90;1.10;;;6.70;99.90;;;;;;5122258;27;20043;-79
2022/01/22 12:56:59;;;;;;;7.15;1.60;;;6.70;99.90;;;;;;5115423;27;20050;-78
2022/01/22 12:59:25;;;;;;;5.68;1.38;;;6.70;99.90;;;;;;5125097;27;20661;-78
2022/01/22 13:01:52;;;;;;;3.65;1.40;;;6.70;99.90;;;;;;5130995;27;20050;-78
2022/01/22 13:04:18;;;;;;;6.97;1.73;;;6.60;99.90;;;;;;5117812;27;20051;-78
2022/01/22 13:06:47;;;;;;;8.98;2.15;;;6.60;99.90;;;;;;5120968;27;20055;-78
2022/01/22 13:09:14;;;;;;;8.10;1.55;;;6.60;99.90;;;;;;5125969;27;20081;-78
2022/01/22 13:11:45;;;;;;;4.57;1.42;;;6.70;99.90;;;;;;5125966;27;20055;-79
2022/01/22 13:14:12;;;;;;;3.50;1.55;;;6.70;99.90;;;;;;5115526;27;20054;-78
2022/01/22 13:16:38;;;;;;;1.45;1.00;;;6.60;99.90;;;;;;5123845;27;20062;-79
2022/01/22 13:19:05;;;;;;;2.53;1.35;;;6.70;99.90;;;;;;5116009;27;20039;-79
2022/01/22 13:21:32;;;;;;;3.38;1.92;;;6.70;99.90;;;;;;5126469;27;20065;-79
2022/01/22 13:23:58;;;;;;;3.38;1.27;;;6.60;99.90;;;;;;5123399;27;20054;-79
2022/01/22 13:26:25;;;;;;;2.10;1.80;;;6.60;99.90;;;;;;5118627;27;20086;-78
2022/01/22 13:28:55;;;;;;;3.80;1.63;;;6.60;99.90;;;;;;5126052;27;20059;-79
2022/01/22 13:31:21;;;;;;;6.50;2.47;;;6.70;99.90;;;;;;5143784;27;20050;-79
2022/01/22 13:33:57;;;;;;;4.82;1.60;;;6.60;99.90;;;;;;5124909;27;20051;-76
2022/01/22 13:36:32;;;;;;;9.43;2.63;;;6.60;99.90;;;;;;5144161;27;20058;-75
2022/01/22 13:39:37;;;;;;;3.53;2.00;;;6.50;99.90;;;;;;5144912;27;20050;-76
2022/01/22 13:45:18;;;;;;;7.25;2.15;;;6.60;99.90;;;;;;5128431;27;20126;-76
2022/01/22 13:47:46;;;;;;;9.05;2.50;;;6.60;99.90;;;;;;5121083;28;20052;-77
2022/01/22 13:50:13;;;;;;;4.78;2.58;;;6.60;99.90;;;;;;5115478;28;20035;-76
2022/01/22 13:52:39;;;;;;;5.32;3.05;;;6.60;99.90;;;;;;5120465;28;20056;-76
2022/01/22 13:55:06;;;;;;;14.05;3.60;;;6.50;99.90;;;;;;5113895;28;20047;-76
2022/01/22 13:57:32;;;;;;;6.43;3.00;;;6.50;99.90;;;;;;5112692;28;20064;-76
2022/01/22 13:59:59;;;;;;;7.70;3.30;;;6.50;99.90;;;;;;5116570;28;20039;-78
2022/01/22 14:02:39;;;;;;;8.10;4.13;;;6.50;99.90;;;;;;5123790;28;20066;-78
2022/01/22 14:05:07;;;;;;;12.75;4.63;;;6.50;99.90;;;;;;5114884;28;20048;-78
2022/01/22 14:07:35;;;;;;;6.85;3.67;;;6.50;99.90;;;;;;5114121;28;20051;-78
2022/01/22 14:10:02;;;;;;;11.95;4.03;;;6.50;99.90;;;;;;5119819;28;20511;-78